createdAt,value
2017-08-07T00:00:38.122Z,1004.76
2017-08-07T00:01:37.478Z,1004.74
2017-08-07T00:02:37.572Z,1004.71
2017-08-07T00:03:37.770Z,1004.80
2017-08-07T00:04:37.493Z,1004.72
2017-08-07T00:05:37.532Z,1004.71
2017-08-07T00:06:38.120Z,1004.72
2017-08-07T00:07:38.122Z,1004.71
2017-08-07T00:08:37.485Z,1004.82
2017-08-07T00:09:37.681Z,1004.87
2017-08-07T00:10:37.484Z,1004.73
2017-08-07T00:11:37.423Z,1004.77
2017-08-07T00:12:37.561Z,1004.72
2017-08-07T00:13:37.485Z,1004.63
2017-08-07T00:14:37.525Z,1004.69
2017-08-07T00:15:38.137Z,1004.66
2017-08-07T00:16:38.139Z,1004.69
2017-08-07T00:17:38.139Z,1004.60
2017-08-07T00:18:37.462Z,1004.70
2017-08-07T00:19:37.613Z,1004.70
2017-08-07T00:20:37.465Z,1004.68
2017-08-07T00:21:37.387Z,1004.64
2017-08-07T00:22:37.437Z,1004.67
2017-08-07T00:23:37.534Z,1004.71
2017-08-07T00:24:37.412Z,1004.81
2017-08-07T00:25:37.420Z,1004.71
2017-08-07T00:26:37.539Z,1004.75
2017-08-07T00:27:37.515Z,1004.75
2017-08-07T00:28:38.159Z,1004.68
2017-08-07T00:29:37.530Z,1004.79
2017-08-07T00:30:38.659Z,1004.72
2017-08-07T00:31:38.165Z,1004.67
2017-08-07T00:32:37.498Z,1004.70
2017-08-07T00:33:39.177Z,1004.72
2017-08-07T00:34:37.433Z,1004.80
2017-08-07T00:35:37.445Z,1004.64
2017-08-07T00:36:39.209Z,1004.63
2017-08-07T00:37:39.171Z,1004.61
2017-08-07T00:38:37.498Z,1004.58
2017-08-07T00:39:38.363Z,1004.69
2017-08-07T00:40:39.208Z,1004.59
2017-08-07T00:41:37.449Z,1004.52
2017-08-07T00:42:37.531Z,1004.61
2017-08-07T00:43:37.489Z,1004.62
2017-08-07T00:44:39.184Z,1004.71
2017-08-07T00:45:37.444Z,1004.63
2017-08-07T00:46:37.517Z,1004.63
2017-08-07T00:47:37.484Z,1004.58
2017-08-07T00:48:37.421Z,1004.60
2017-08-07T00:49:37.858Z,1004.59
2017-08-07T00:50:37.479Z,1004.71
2017-08-07T00:51:37.467Z,1004.60
2017-08-07T00:52:37.552Z,1004.65
2017-08-07T00:53:38.199Z,1004.55
2017-08-07T00:54:37.853Z,1004.56
2017-08-07T00:55:38.204Z,1004.67
2017-08-07T00:56:38.215Z,1004.51
2017-08-07T00:57:38.204Z,1004.57
2017-08-07T00:58:38.705Z,1004.60
2017-08-07T00:59:37.406Z,1004.55
2017-08-07T01:00:37.470Z,1004.70
2017-08-07T01:01:38.302Z,1004.60
2017-08-07T01:02:37.467Z,1004.57
2017-08-07T01:03:37.439Z,1004.51
2017-08-07T01:04:38.216Z,1004.51
2017-08-07T01:05:37.433Z,1004.58
2017-08-07T01:06:37.389Z,1004.49
2017-08-07T01:07:37.415Z,1004.50
2017-08-07T01:08:37.477Z,1004.47
2017-08-07T01:09:37.469Z,1004.55
2017-08-07T01:10:37.427Z,1004.68
2017-08-07T01:11:37.520Z,1004.54
2017-08-07T01:12:37.409Z,1004.57
2017-08-07T01:13:37.393Z,1004.51
2017-08-07T01:14:37.898Z,1004.59
2017-08-07T01:15:37.590Z,1004.60
2017-08-07T01:16:37.477Z,1004.52
2017-08-07T01:17:37.461Z,1004.45
2017-08-07T01:18:37.424Z,1004.43
2017-08-07T01:19:38.240Z,1004.48
2017-08-07T01:20:37.641Z,1004.57
2017-08-07T01:21:37.414Z,1004.54
2017-08-07T01:22:37.427Z,1004.46
2017-08-07T01:23:37.390Z,1004.48
2017-08-07T01:24:37.458Z,1004.50
2017-08-07T01:25:37.476Z,1004.53
2017-08-07T01:26:37.376Z,1004.49
2017-08-07T01:27:37.467Z,1004.41
2017-08-07T01:28:37.460Z,1004.38
2017-08-07T01:29:37.957Z,1004.32
2017-08-07T01:30:37.438Z,1004.43
2017-08-07T01:31:38.259Z,1004.34
2017-08-07T01:32:37.469Z,1004.27
2017-08-07T01:33:37.339Z,1004.27
2017-08-07T01:34:37.419Z,1004.31
2017-08-07T01:35:37.410Z,1004.21
2017-08-07T01:36:37.501Z,1004.36
2017-08-07T01:37:39.270Z,1004.21
2017-08-07T01:38:38.283Z,1004.26
2017-08-07T01:39:38.275Z,1004.19
2017-08-07T01:40:38.274Z,1004.20
2017-08-07T01:41:38.275Z,1004.17
2017-08-07T01:42:37.418Z,1004.15
2017-08-07T01:43:38.279Z,1004.19
2017-08-07T01:44:37.465Z,1004.27
2017-08-07T01:45:37.473Z,1004.22
2017-08-07T01:46:37.372Z,1004.12
2017-08-07T01:47:37.432Z,1004.09
2017-08-07T01:48:38.302Z,1004.09
2017-08-07T01:49:37.359Z,1004.14
2017-08-07T01:50:38.294Z,1004.15
2017-08-07T01:51:38.842Z,1004.26
2017-08-07T01:52:37.388Z,1004.19
2017-08-07T01:53:37.373Z,1004.18
2017-08-07T01:54:37.439Z,1004.16
2017-08-07T01:55:38.297Z,1004.12
2017-08-07T01:56:38.332Z,1004.22
2017-08-07T01:57:37.413Z,1004.14
2017-08-07T01:58:38.802Z,1004.13
2017-08-07T01:59:38.308Z,1004.11
2017-08-07T02:00:37.440Z,1004.03
2017-08-07T02:01:39.834Z,1004.10
2017-08-07T02:02:39.309Z,1004.05
2017-08-07T02:03:37.470Z,1004.08
2017-08-07T02:04:37.813Z,1004.03
2017-08-07T02:05:38.334Z,1004.04
2017-08-07T02:06:38.315Z,1004.06
2017-08-07T02:07:37.833Z,1004.10
2017-08-07T02:08:38.323Z,1004.08
2017-08-07T02:09:37.366Z,1003.99
2017-08-07T02:10:37.500Z,1004.00
2017-08-07T02:11:37.843Z,1004.08
2017-08-07T02:12:38.205Z,1003.96
2017-08-07T02:13:37.334Z,1003.94
2017-08-07T02:14:37.831Z,1003.97
2017-08-07T02:15:37.408Z,1003.98
2017-08-07T02:16:37.413Z,1003.97
2017-08-07T02:17:37.385Z,1004.01
2017-08-07T02:18:37.834Z,1003.92
2017-08-07T02:19:37.434Z,1003.96
2017-08-07T02:20:37.453Z,1003.90
2017-08-07T02:21:37.519Z,1003.90
2017-08-07T02:22:37.845Z,1003.99
2017-08-07T02:23:37.473Z,1003.90
2017-08-07T02:24:37.499Z,1003.85
2017-08-07T02:25:37.361Z,1003.87
2017-08-07T02:26:37.429Z,1003.87
2017-08-07T02:27:37.430Z,1003.97
2017-08-07T02:28:37.883Z,1003.85
2017-08-07T02:29:37.385Z,1003.82
2017-08-07T02:30:37.383Z,1003.83
2017-08-07T02:31:37.506Z,1003.88
2017-08-07T02:32:37.482Z,1003.93
2017-08-07T02:33:37.866Z,1003.90
2017-08-07T02:34:37.391Z,1003.88
2017-08-07T02:35:38.362Z,1003.92
2017-08-07T02:36:37.868Z,1003.95
2017-08-07T02:37:37.405Z,1004.03
2017-08-07T02:38:37.433Z,1003.93
2017-08-07T02:39:37.889Z,1003.91
2017-08-07T02:40:37.452Z,1003.93
2017-08-07T02:41:37.375Z,1003.89
2017-08-07T02:42:37.372Z,1003.94
2017-08-07T02:43:37.398Z,1003.86
2017-08-07T02:44:37.880Z,1003.87
2017-08-07T02:45:37.446Z,1003.88
2017-08-07T02:46:37.411Z,1003.89
2017-08-07T02:47:37.881Z,1004.05
2017-08-07T02:48:37.378Z,1003.93
2017-08-07T02:49:38.384Z,1003.87
2017-08-07T02:50:37.399Z,1003.89
2017-08-07T02:51:37.478Z,1003.91
2017-08-07T02:52:37.403Z,1003.96
2017-08-07T02:53:37.893Z,1003.91
2017-08-07T02:54:37.485Z,1003.96
2017-08-07T02:55:37.375Z,1003.93
2017-08-07T02:56:37.388Z,1003.98
2017-08-07T02:57:37.334Z,1003.98
2017-08-07T02:58:37.367Z,1003.91
2017-08-07T02:59:37.351Z,1003.88
2017-08-07T03:00:37.907Z,1003.86
2017-08-07T03:01:37.411Z,1003.89
2017-08-07T03:02:37.384Z,1003.78
2017-08-07T03:03:37.907Z,1003.97
2017-08-07T03:04:37.915Z,1003.87
2017-08-07T03:05:37.913Z,1003.84
2017-08-07T03:06:37.928Z,1003.87
2017-08-07T03:07:37.389Z,1003.84
2017-08-07T03:08:38.916Z,1003.94
2017-08-07T03:09:37.391Z,1003.77
2017-08-07T03:10:37.515Z,1003.87
2017-08-07T03:11:37.386Z,1003.85
2017-08-07T03:12:37.489Z,1003.79
2017-08-07T03:13:37.504Z,1003.87
2017-08-07T03:14:37.412Z,1003.88
2017-08-07T03:15:37.378Z,1003.80
2017-08-07T03:16:37.362Z,1003.85
2017-08-07T03:17:37.353Z,1003.79
2017-08-07T03:18:37.328Z,1003.87
2017-08-07T03:19:37.460Z,1003.71
2017-08-07T03:20:37.938Z,1003.72
2017-08-07T03:21:37.968Z,1003.73
2017-08-07T03:22:37.399Z,1003.68
2017-08-07T03:23:37.469Z,1003.75
2017-08-07T03:24:37.288Z,1003.77
2017-08-07T03:25:37.323Z,1003.70
2017-08-07T03:26:37.410Z,1003.75
2017-08-07T03:27:37.392Z,1003.71
2017-08-07T03:28:37.344Z,1003.79
2017-08-07T03:29:37.396Z,1003.68
2017-08-07T03:30:37.336Z,1003.70
2017-08-07T03:31:37.958Z,1003.71
2017-08-07T03:32:38.454Z,1003.73
2017-08-07T03:33:37.956Z,1003.77
2017-08-07T03:34:37.969Z,1003.71
2017-08-07T03:35:37.387Z,1003.71
2017-08-07T03:36:37.967Z,1003.71
2017-08-07T03:37:38.523Z,1003.68
2017-08-07T03:38:38.480Z,1003.88
2017-08-07T03:39:37.319Z,1003.70
2017-08-07T03:40:37.968Z,1003.72
2017-08-07T03:41:37.990Z,1003.73
2017-08-07T03:42:37.447Z,1003.66
2017-08-07T03:43:37.978Z,1003.80
2017-08-07T03:44:39.005Z,1003.69
2017-08-07T03:45:37.976Z,1003.76
2017-08-07T03:46:37.986Z,1003.68
2017-08-07T03:47:37.402Z,1003.71
2017-08-07T03:48:37.328Z,1003.76
2017-08-07T03:49:37.410Z,1003.81
2017-08-07T03:50:37.332Z,1003.71
2017-08-07T03:51:37.446Z,1003.74
2017-08-07T03:52:37.354Z,1003.73
2017-08-07T03:53:37.396Z,1003.70
2017-08-07T03:54:37.359Z,1003.75
2017-08-07T03:55:37.991Z,1003.63
2017-08-07T03:56:37.443Z,1003.65
2017-08-07T03:57:38.287Z,1003.58
2017-08-07T03:58:37.497Z,1003.66
2017-08-07T03:59:37.381Z,1003.68
2017-08-07T04:00:37.348Z,1003.59
2017-08-07T04:01:37.306Z,1003.64
2017-08-07T04:02:37.394Z,1003.66
2017-08-07T04:03:38.005Z,1003.57
2017-08-07T04:04:37.353Z,1003.71
2017-08-07T04:05:37.372Z,1003.57
2017-08-07T04:06:37.403Z,1003.61
2017-08-07T04:07:38.015Z,1003.56
2017-08-07T04:08:37.701Z,1003.59
2017-08-07T04:09:38.015Z,1003.65
2017-08-07T04:10:37.357Z,1003.58
2017-08-07T04:11:38.023Z,1003.63
2017-08-07T04:12:37.356Z,1003.68
2017-08-07T04:13:37.423Z,1003.69
2017-08-07T04:14:37.353Z,1003.69
2017-08-07T04:15:38.028Z,1003.62
2017-08-07T04:16:37.530Z,1003.72
2017-08-07T04:17:37.396Z,1003.67
2017-08-07T04:18:37.358Z,1003.73
2017-08-07T04:19:38.530Z,1003.68
2017-08-07T04:20:38.032Z,1003.73
2017-08-07T04:21:37.365Z,1003.66
2017-08-07T04:22:37.409Z,1003.63
2017-08-07T04:23:38.036Z,1003.63
2017-08-07T04:24:37.425Z,1003.65
2017-08-07T04:25:37.323Z,1003.74
2017-08-07T04:26:37.384Z,1003.63
2017-08-07T04:27:37.338Z,1003.64
2017-08-07T04:28:38.044Z,1003.65
2017-08-07T04:29:37.333Z,1003.64
2017-08-07T04:30:37.334Z,1003.66
2017-08-07T04:31:37.400Z,1003.62
2017-08-07T04:32:37.424Z,1003.55
2017-08-07T04:33:37.333Z,1003.55
2017-08-07T04:34:37.424Z,1003.54
2017-08-07T04:35:37.379Z,1003.68
2017-08-07T04:36:37.359Z,1003.56
2017-08-07T04:37:37.447Z,1003.54
2017-08-07T04:38:37.273Z,1003.59
2017-08-07T04:39:37.344Z,1003.60
2017-08-07T04:40:38.090Z,1003.62
2017-08-07T04:41:37.337Z,1003.54
2017-08-07T04:42:38.067Z,1003.54
2017-08-07T04:43:39.068Z,1003.55
2017-08-07T04:44:37.481Z,1003.55
2017-08-07T04:45:38.095Z,1003.62
2017-08-07T04:46:37.312Z,1003.56
2017-08-07T04:47:38.076Z,1003.48
2017-08-07T04:48:37.303Z,1003.56
2017-08-07T04:49:38.078Z,1003.52
2017-08-07T04:50:38.080Z,1003.68
2017-08-07T04:51:38.232Z,1003.53
2017-08-07T04:52:38.083Z,1003.54
2017-08-07T04:53:38.150Z,1003.46
2017-08-07T04:54:38.086Z,1003.50
2017-08-07T04:55:37.244Z,1003.66
2017-08-07T04:56:37.292Z,1003.56
2017-08-07T04:57:37.334Z,1003.57
2017-08-07T04:58:37.325Z,1003.62
2017-08-07T04:59:38.115Z,1003.51
2017-08-07T05:00:37.282Z,1003.62
2017-08-07T05:01:37.244Z,1003.58
2017-08-07T05:02:37.333Z,1003.55
2017-08-07T05:03:37.270Z,1003.59
2017-08-07T05:04:38.102Z,1003.62
2017-08-07T05:05:37.867Z,1003.61
2017-08-07T05:06:37.521Z,1003.66
2017-08-07T05:07:37.269Z,1003.60
2017-08-07T05:08:37.282Z,1003.62
2017-08-07T05:09:38.121Z,1003.60
2017-08-07T05:10:38.613Z,1003.62
2017-08-07T05:11:37.362Z,1003.65
2017-08-07T05:12:37.348Z,1003.60
2017-08-07T05:13:37.318Z,1003.54
2017-08-07T05:14:37.337Z,1003.56
2017-08-07T05:15:37.368Z,1003.56
2017-08-07T05:16:37.355Z,1003.65
2017-08-07T05:17:38.133Z,1003.54
2017-08-07T05:18:38.125Z,1003.52
2017-08-07T05:19:38.152Z,1003.55
2017-08-07T05:20:37.886Z,1003.49
2017-08-07T05:21:38.129Z,1003.60
2017-08-07T05:22:38.140Z,1003.51
2017-08-07T05:23:38.133Z,1003.50
2017-08-07T05:24:37.321Z,1003.50
2017-08-07T05:25:38.136Z,1003.55
2017-08-07T05:26:37.301Z,1003.59
2017-08-07T05:27:37.313Z,1003.44
2017-08-07T05:28:37.387Z,1003.46
2017-08-07T05:29:37.367Z,1003.42
2017-08-07T05:30:38.648Z,1003.47
2017-08-07T05:31:37.278Z,1003.47
2017-08-07T05:32:37.304Z,1003.47
2017-08-07T05:33:37.336Z,1003.49
2017-08-07T05:34:37.345Z,1003.47
2017-08-07T05:35:37.349Z,1003.48
2017-08-07T05:36:37.296Z,1003.50
2017-08-07T05:37:37.414Z,1003.43
2017-08-07T05:38:37.287Z,1003.40
2017-08-07T05:39:37.300Z,1003.46
2017-08-07T05:40:37.309Z,1003.37
2017-08-07T05:41:37.343Z,1003.37
2017-08-07T05:42:38.164Z,1003.43
2017-08-07T05:43:37.345Z,1003.37
2017-08-07T05:44:37.413Z,1003.33
2017-08-07T05:45:38.172Z,1003.33
2017-08-07T05:46:37.340Z,1003.35
2017-08-07T05:47:37.363Z,1003.44
2017-08-07T05:48:37.317Z,1003.38
2017-08-07T05:49:37.281Z,1003.33
2017-08-07T05:50:38.185Z,1003.38
2017-08-07T05:51:37.343Z,1003.38
2017-08-07T05:52:37.305Z,1003.50
2017-08-07T05:53:38.189Z,1003.30
2017-08-07T05:54:37.343Z,1003.44
2017-08-07T05:55:39.208Z,1003.31
2017-08-07T05:56:37.408Z,1003.40
2017-08-07T05:57:37.390Z,1003.38
2017-08-07T05:58:37.499Z,1003.27
2017-08-07T05:59:37.298Z,1003.32
2017-08-07T06:00:37.314Z,1003.36
2017-08-07T06:01:37.336Z,1003.34
2017-08-07T06:02:37.722Z,1003.45
2017-08-07T06:03:37.406Z,1003.32
2017-08-07T06:04:37.364Z,1003.36
2017-08-07T06:05:37.313Z,1003.39
2017-08-07T06:06:38.203Z,1003.40
2017-08-07T06:07:37.346Z,1003.49
2017-08-07T06:08:37.334Z,1003.36
2017-08-07T06:09:37.293Z,1003.40
2017-08-07T06:10:37.289Z,1003.41
2017-08-07T06:11:37.291Z,1003.33
2017-08-07T06:12:37.321Z,1003.41
2017-08-07T06:13:37.342Z,1003.36
2017-08-07T06:14:37.328Z,1003.41
2017-08-07T06:15:37.800Z,1003.35
2017-08-07T06:16:37.340Z,1003.41
2017-08-07T06:17:37.334Z,1003.51
2017-08-07T06:18:37.308Z,1003.37
2017-08-07T06:19:37.733Z,1003.45
2017-08-07T06:20:37.329Z,1003.42
2017-08-07T06:21:37.307Z,1003.41
2017-08-07T06:22:37.492Z,1003.41
2017-08-07T06:23:37.269Z,1003.43
2017-08-07T06:24:37.741Z,1003.35
2017-08-07T06:25:37.360Z,1003.40
2017-08-07T06:26:37.739Z,1003.36
2017-08-07T06:27:37.736Z,1003.42
2017-08-07T06:28:37.233Z,1003.50
2017-08-07T06:29:37.260Z,1003.46
2017-08-07T06:30:37.742Z,1003.44
2017-08-07T06:31:37.745Z,1003.36
2017-08-07T06:32:37.745Z,1003.41
2017-08-07T06:33:37.357Z,1003.52
2017-08-07T06:34:37.748Z,1003.44
2017-08-07T06:35:38.275Z,1003.38
2017-08-07T06:36:37.273Z,1003.41
2017-08-07T06:37:37.285Z,1003.38
2017-08-07T06:38:37.426Z,1003.44
2017-08-07T06:39:37.757Z,1003.39
2017-08-07T06:40:37.768Z,1003.46
2017-08-07T06:41:37.307Z,1003.42
2017-08-07T06:42:37.761Z,1003.48
2017-08-07T06:43:38.266Z,1003.54
2017-08-07T06:44:37.327Z,1003.40
2017-08-07T06:45:38.291Z,1003.37
2017-08-07T06:46:37.807Z,1003.39
2017-08-07T06:47:37.318Z,1003.36
2017-08-07T06:48:37.195Z,1003.47
2017-08-07T06:49:37.776Z,1003.35
2017-08-07T06:50:37.305Z,1003.35
2017-08-07T06:51:37.330Z,1003.34
2017-08-07T06:52:37.245Z,1003.34
2017-08-07T06:53:37.297Z,1003.51
2017-08-07T06:54:37.780Z,1003.32
2017-08-07T06:55:37.785Z,1003.34
2017-08-07T06:56:37.415Z,1003.35
2017-08-07T06:57:37.292Z,1003.30
2017-08-07T06:58:37.323Z,1003.47
2017-08-07T06:59:37.255Z,1003.30
2017-08-07T07:00:37.792Z,1003.26
2017-08-07T07:01:37.263Z,1003.27
2017-08-07T07:02:37.378Z,1003.24
2017-08-07T07:03:38.295Z,1003.33
2017-08-07T07:04:37.206Z,1003.28
2017-08-07T07:05:37.206Z,1003.27
2017-08-07T07:06:38.309Z,1003.28
2017-08-07T07:07:37.339Z,1003.26
2017-08-07T07:08:37.272Z,1003.19
2017-08-07T07:09:37.351Z,1003.39
2017-08-07T07:10:37.295Z,1003.22
2017-08-07T07:11:37.821Z,1003.18
2017-08-07T07:12:37.257Z,1003.19
2017-08-07T07:13:37.279Z,1003.24
2017-08-07T07:14:37.291Z,1003.31
2017-08-07T07:15:37.932Z,1003.19
2017-08-07T07:16:37.820Z,1003.13
2017-08-07T07:17:37.228Z,1003.09
2017-08-07T07:18:37.539Z,1003.10
2017-08-07T07:19:37.227Z,1003.15
2017-08-07T07:20:37.227Z,1003.08
2017-08-07T07:21:37.355Z,1003.07
2017-08-07T07:22:37.380Z,1003.02
2017-08-07T07:23:37.834Z,1003.01
2017-08-07T07:24:37.368Z,1003.15
2017-08-07T07:25:37.284Z,1003.06
2017-08-07T07:26:37.226Z,1003.03
2017-08-07T07:27:37.837Z,1003.00
2017-08-07T07:28:38.338Z,1003.03
2017-08-07T07:29:37.863Z,1003.03
2017-08-07T07:30:37.310Z,1003.02
2017-08-07T07:31:38.843Z,1003.01
2017-08-07T07:32:37.260Z,1002.97
2017-08-07T07:33:38.343Z,1002.93
2017-08-07T07:34:37.322Z,1003.06
2017-08-07T07:35:37.216Z,1002.97
2017-08-07T07:36:37.283Z,1002.99
2017-08-07T07:37:37.214Z,1002.94
2017-08-07T07:38:37.360Z,1002.99
2017-08-07T07:39:37.853Z,1003.07
2017-08-07T07:40:37.854Z,1002.97
2017-08-07T07:41:37.303Z,1003.04
2017-08-07T07:42:37.318Z,1002.95
2017-08-07T07:43:37.308Z,1002.92
2017-08-07T07:44:37.202Z,1002.91
2017-08-07T07:45:37.299Z,1002.99
2017-08-07T07:46:37.873Z,1002.90
2017-08-07T07:47:37.872Z,1002.91
2017-08-07T07:48:37.885Z,1002.94
2017-08-07T07:49:37.265Z,1002.89
2017-08-07T07:50:37.252Z,1002.91
2017-08-07T07:51:37.872Z,1002.84
2017-08-07T07:52:37.281Z,1002.88
2017-08-07T07:53:37.305Z,1002.86
2017-08-07T07:54:37.548Z,1002.81
2017-08-07T07:55:37.879Z,1002.89
2017-08-07T07:56:37.896Z,1002.84
2017-08-07T07:57:37.883Z,1002.80
2017-08-07T07:58:37.889Z,1002.82
2017-08-07T07:59:37.284Z,1002.80
2017-08-07T08:00:39.388Z,1002.84
2017-08-07T08:01:37.218Z,1002.80
2017-08-07T08:02:37.243Z,1002.72
2017-08-07T08:03:37.232Z,1002.75
2017-08-07T08:04:37.320Z,1002.76
2017-08-07T08:05:38.015Z,1002.85
2017-08-07T08:06:37.897Z,1002.77
2017-08-07T08:07:37.267Z,1002.75
2017-08-07T08:08:37.902Z,1002.74
2017-08-07T08:09:37.294Z,1002.68
2017-08-07T08:10:37.216Z,1002.65
2017-08-07T08:11:37.255Z,1002.63
2017-08-07T08:12:37.911Z,1002.64
2017-08-07T08:13:37.207Z,1002.60
2017-08-07T08:14:37.335Z,1002.65
2017-08-07T08:15:37.223Z,1002.70
2017-08-07T08:16:37.250Z,1002.65
2017-08-07T08:17:37.940Z,1002.64
2017-08-07T08:18:37.226Z,1002.65
2017-08-07T08:19:37.233Z,1002.65
2017-08-07T08:20:37.272Z,1002.66
2017-08-07T08:21:37.922Z,1002.70
2017-08-07T08:22:37.979Z,1002.61
2017-08-07T08:23:37.175Z,1002.61
2017-08-07T08:24:37.287Z,1002.62
2017-08-07T08:25:37.212Z,1002.63
2017-08-07T08:26:37.218Z,1002.76
2017-08-07T08:27:37.943Z,1002.61
2017-08-07T08:28:37.226Z,1002.64
2017-08-07T08:29:37.246Z,1002.62
2017-08-07T08:30:37.621Z,1002.63
2017-08-07T08:31:37.942Z,1002.73
2017-08-07T08:32:37.176Z,1002.60
2017-08-07T08:33:37.209Z,1002.63
2017-08-07T08:34:37.272Z,1002.66
2017-08-07T08:35:37.359Z,1002.59
2017-08-07T08:36:37.987Z,1002.69
2017-08-07T08:37:37.216Z,1002.56
2017-08-07T08:38:37.219Z,1002.54
2017-08-07T08:39:37.964Z,1002.57
2017-08-07T08:40:37.954Z,1002.55
2017-08-07T08:41:38.456Z,1002.65
2017-08-07T08:42:37.257Z,1002.60
2017-08-07T08:43:37.956Z,1002.55
2017-08-07T08:44:37.280Z,1002.53
2017-08-07T08:45:37.315Z,1002.55
2017-08-07T08:46:37.409Z,1002.64
2017-08-07T08:47:37.265Z,1002.52
2017-08-07T08:48:37.295Z,1002.53
2017-08-07T08:49:37.974Z,1002.50
2017-08-07T08:50:37.289Z,1002.47
2017-08-07T08:51:37.368Z,1002.61
2017-08-07T08:52:37.318Z,1002.57
2017-08-07T08:53:37.211Z,1002.57
2017-08-07T08:54:38.012Z,1002.50
2017-08-07T08:55:37.337Z,1002.55
2017-08-07T08:56:37.356Z,1002.68
2017-08-07T08:57:37.453Z,1002.52
2017-08-07T08:58:37.254Z,1002.52
2017-08-07T08:59:37.255Z,1002.54
2017-08-07T09:43:59.224Z,1002.21
2017-08-07T09:44:59.234Z,1002.15
2017-08-07T09:47:35.990Z,1002.00
2017-08-07T09:48:36.891Z,1002.10
2017-08-07T09:49:36.010Z,1002.10
2017-08-07T09:50:36.017Z,1002.15
2017-08-07T09:51:36.037Z,1002.11
2017-08-07T09:52:36.044Z,1002.09
2017-08-07T09:53:36.018Z,1002.19
2017-08-07T09:54:36.009Z,1002.04
2017-08-07T09:55:36.079Z,1002.08
2017-08-07T09:56:36.155Z,1002.03
2017-08-07T09:57:36.927Z,1002.11
2017-08-07T09:58:36.038Z,1002.05
2017-08-07T09:59:36.036Z,1002.01
2017-08-07T10:00:36.029Z,1001.98
2017-08-07T10:01:36.031Z,1002.00
2017-08-07T10:02:36.025Z,1002.03
2017-08-07T10:03:36.920Z,1001.96
2017-08-07T10:04:36.095Z,1001.94
2017-08-07T10:05:36.923Z,1001.94
2017-08-07T10:06:36.922Z,1002.00
2017-08-07T10:07:36.024Z,1001.99
2017-08-07T10:08:36.928Z,1001.99
2017-08-07T10:09:36.018Z,1001.96
2017-08-07T10:10:36.052Z,1001.91
2017-08-07T10:11:36.124Z,1001.93
2017-08-07T10:12:36.110Z,1001.84
2017-08-07T10:13:36.011Z,1001.92
2017-08-07T10:14:36.094Z,1001.81
2017-08-07T10:15:36.939Z,1001.83
2017-08-07T10:16:36.106Z,1001.88
2017-08-07T10:17:36.133Z,1001.88
2017-08-07T10:18:36.102Z,1001.92
2017-08-07T10:19:36.111Z,1001.93
2017-08-07T10:20:36.959Z,1001.94
2017-08-07T10:21:36.146Z,1001.81
2017-08-07T10:22:36.120Z,1001.80
2017-08-07T10:23:36.220Z,1001.89
2017-08-07T10:24:36.050Z,1001.86
2017-08-07T10:25:36.079Z,1001.79
2017-08-07T10:26:36.955Z,1001.81
2017-08-07T10:27:36.075Z,1001.82
2017-08-07T10:28:36.958Z,1001.85
2017-08-07T10:29:36.038Z,1001.89
2017-08-07T10:30:36.126Z,1001.73
2017-08-07T10:31:36.468Z,1001.76
2017-08-07T10:32:36.082Z,1001.79
2017-08-07T10:33:36.116Z,1001.78
2017-08-07T10:34:35.991Z,1001.86
2017-08-07T10:35:36.051Z,1001.74
2017-08-07T10:36:36.091Z,1001.62
2017-08-07T10:37:36.040Z,1001.69
2017-08-07T10:38:37.974Z,1001.68
2017-08-07T10:39:37.476Z,1001.77
2017-08-07T10:40:36.154Z,1001.67
2017-08-07T10:41:36.109Z,1001.66
2017-08-07T10:42:36.152Z,1001.62
2017-08-07T10:43:36.034Z,1001.68
2017-08-07T10:44:36.986Z,1001.76
2017-08-07T10:45:36.497Z,1001.66
2017-08-07T10:46:36.050Z,1001.56
2017-08-07T10:47:36.070Z,1001.57
2017-08-07T10:48:36.075Z,1001.63
2017-08-07T10:49:36.493Z,1001.66
2017-08-07T10:50:36.994Z,1001.57
2017-08-07T10:51:36.067Z,1001.55
2017-08-07T10:52:36.106Z,1001.59
2017-08-07T10:53:36.276Z,1001.54
2017-08-07T10:54:36.039Z,1001.63
2017-08-07T10:55:36.080Z,1001.50
2017-08-07T10:56:36.102Z,1001.48
2017-08-07T10:57:36.079Z,1001.48
2017-08-07T10:58:36.044Z,1001.47
2017-08-07T10:59:35.981Z,1001.63
2017-08-07T11:00:36.188Z,1001.50
2017-08-07T11:01:37.012Z,1001.53
2017-08-07T11:02:35.982Z,1001.47
2017-08-07T11:03:36.249Z,1001.46
2017-08-07T11:04:36.517Z,1001.53
2017-08-07T11:05:36.062Z,1001.46
2017-08-07T11:06:36.020Z,1001.42
2017-08-07T11:07:36.018Z,1001.41
2017-08-07T11:08:36.046Z,1001.33
2017-08-07T11:09:36.247Z,1001.41
2017-08-07T11:10:36.109Z,1001.42
2017-08-07T11:11:37.068Z,1001.30
2017-08-07T11:12:36.103Z,1001.39
2017-08-07T11:13:36.060Z,1001.29
2017-08-07T11:14:36.533Z,1001.37
2017-08-07T11:15:36.026Z,1001.40
2017-08-07T11:16:36.111Z,1001.42
2017-08-07T11:17:36.562Z,1001.30
2017-08-07T11:18:36.058Z,1001.26
2017-08-07T11:19:36.352Z,1001.30
2017-08-07T11:20:36.021Z,1001.30
2017-08-07T11:21:36.025Z,1001.36
2017-08-07T11:22:36.064Z,1001.22
2017-08-07T11:23:37.053Z,1001.27
2017-08-07T11:24:36.057Z,1001.25
2017-08-07T11:25:36.175Z,1001.30
2017-08-07T11:26:36.211Z,1001.20
2017-08-07T11:27:37.055Z,1001.18
2017-08-07T11:28:36.111Z,1001.15
2017-08-07T11:29:36.239Z,1001.16
2017-08-07T11:30:36.560Z,1001.17
2017-08-07T11:31:36.049Z,1001.08
2017-08-07T11:32:36.815Z,1001.01
2017-08-07T11:33:36.119Z,1001.14
2017-08-07T11:34:36.207Z,1001.04
2017-08-07T11:35:36.161Z,1001.10
2017-08-07T11:36:36.035Z,1001.07
2017-08-07T11:37:36.119Z,1001.05
2017-08-07T11:38:36.175Z,1001.04
2017-08-07T11:39:36.164Z,1000.98
2017-08-07T11:40:36.009Z,1001.03
2017-08-07T11:41:36.041Z,1001.00
2017-08-07T11:42:36.155Z,1000.92
2017-08-07T11:43:36.123Z,1001.01
2017-08-07T11:44:36.064Z,1000.94
2017-08-07T11:45:36.106Z,1000.97
2017-08-07T11:46:36.594Z,1000.87
2017-08-07T11:47:36.618Z,1000.91
2017-08-07T11:48:36.623Z,1000.87
2017-08-07T11:49:36.111Z,1000.86
2017-08-07T11:50:35.972Z,1000.88
2017-08-07T11:51:36.788Z,1000.91
2017-08-07T11:52:36.011Z,1000.83
2017-08-07T11:53:36.599Z,1000.85
2017-08-07T11:54:36.724Z,1000.81
2017-08-07T11:55:36.123Z,1000.81
2017-08-07T11:56:36.069Z,1000.86
2017-08-07T11:57:36.113Z,1000.73
2017-08-07T11:58:36.780Z,1000.77
2017-08-07T11:59:36.106Z,1000.74
2017-08-07T12:00:36.159Z,1000.72
2017-08-07T12:01:36.612Z,1000.86
2017-08-07T12:02:36.616Z,1000.74
2017-08-07T12:03:36.678Z,1000.70
2017-08-07T12:04:36.123Z,1000.70
2017-08-07T12:05:36.797Z,1000.72
2017-08-07T12:06:35.989Z,1000.76
2017-08-07T12:07:36.162Z,1000.79
2017-08-07T12:08:36.074Z,1000.81
2017-08-07T12:09:36.115Z,1000.77
2017-08-07T12:10:36.626Z,1000.65
2017-08-07T12:11:36.628Z,1000.69
2017-08-07T12:12:36.259Z,1000.63
2017-08-07T12:13:36.149Z,1000.64
2017-08-07T12:14:36.074Z,1000.61
2017-08-07T12:15:36.010Z,1000.67
2017-08-07T12:16:36.069Z,1000.74
2017-08-07T12:17:36.176Z,1000.63
2017-08-07T12:18:36.640Z,1000.64
2017-08-07T12:19:36.144Z,1000.66
2017-08-07T12:20:36.092Z,1000.66
2017-08-07T12:21:36.056Z,1000.74
2017-08-07T12:22:36.129Z,1000.61
2017-08-07T12:23:36.675Z,1000.60
2017-08-07T12:24:36.663Z,1000.61
2017-08-07T12:25:36.781Z,1000.60
2017-08-07T12:26:36.248Z,1000.63
2017-08-07T12:27:36.686Z,1000.59
2017-08-07T12:28:36.076Z,1000.57
2017-08-07T12:29:36.999Z,1000.56
2017-08-07T12:30:36.784Z,1000.49
2017-08-07T12:31:36.081Z,1000.54
2017-08-07T12:32:35.988Z,1000.50
2017-08-07T12:33:36.666Z,1000.43
2017-08-07T12:34:36.144Z,1000.52
2017-08-07T12:35:36.677Z,1000.47
2017-08-07T12:36:36.281Z,1000.48
2017-08-07T12:37:35.998Z,1000.56
2017-08-07T12:38:36.688Z,1000.47
2017-08-07T12:39:37.174Z,1000.43
2017-08-07T12:40:36.190Z,1000.45
2017-08-07T12:41:36.113Z,1000.46
2017-08-07T12:42:36.136Z,1000.52
2017-08-07T12:43:36.072Z,1000.44
2017-08-07T12:44:36.053Z,1000.43
2017-08-07T12:45:36.041Z,1000.40
2017-08-07T12:46:36.120Z,1000.40
2017-08-07T12:47:36.175Z,1000.47
2017-08-07T12:48:36.690Z,1000.38
2017-08-07T12:49:36.004Z,1000.42
2017-08-07T12:50:36.717Z,1000.36